Time;durP1;ratioP1;P1;durP2;ratioP2;P2;SDS_P1;SDS_P2;PMS_P1;PMS_P2;Temp;Humidity;BMP_temperature;BMP_pressure;BME280_temperature;BME280_humidity;BME280_pressure;Samples;Min_cycle;Max_cycle;Signal;HPM_P1;HPM_P2
2021/10/17 00:01:38;;;;;;;9.05;3.72;;;;;;;8.42;50.12;101791.38;5029663;28;20032;-70
2021/10/17 00:04:03;;;;;;;7.50;3.00;;;;;;;8.61;49.74;101786.75;5011740;28;20879;-70
2021/10/17 00:06:29;;;;;;;7.40;4.07;;;;;;;8.62;49.74;101793.66;4983991;28;20034;-64
2021/10/17 00:08:56;;;;;;;9.27;3.10;;;;;;;7.99;51.28;101781.66;5009041;28;20052;-64
2021/10/17 00:11:22;;;;;;;6.95;2.78;;;;;;;8.62;49.80;101799.72;4994752;28;20060;-65
2021/10/17 00:13:48;;;;;;;13.63;3.40;;;;;;;8.33;50.30;101792.38;5010531;28;20042;-64
2021/10/17 00:16:14;;;;;;;4.85;2.85;;;;;;;8.64;49.58;101797.09;4995276;28;20609;-66
2021/10/17 00:18:39;;;;;;;8.27;2.75;;;;;;;7.78;52.07;101798.41;5009394;28;20049;-65
2021/10/17 00:21:05;;;;;;;7.35;3.05;;;;;;;8.49;50.32;101793.84;5007968;28;20260;-62
2021/10/17 00:23:30;;;;;;;9.35;3.38;;;;;;;8.28;50.91;101796.81;5010042;28;20034;-63
2021/10/17 00:25:56;;;;;;;9.82;3.55;;;;;;;8.62;50.18;101793.66;5009980;28;20392;-63
2021/10/17 00:28:22;;;;;;;9.00;3.08;;;;;;;8.33;50.44;101795.00;5007704;28;20462;-64
2021/10/17 00:30:51;;;;;;;11.82;5.18;;;;;;;7.57;52.90;101795.22;4991595;28;20034;-63
2021/10/17 00:33:18;;;;;;;5.53;3.10;;;;;;;8.07;51.78;101798.00;5000951;28;20048;-63
2021/10/17 00:35:44;;;;;;;11.75;3.42;;;;;;;7.67;52.51;101804.63;4995522;28;20037;-64
2021/10/17 00:38:09;;;;;;;9.13;3.70;;;;;;;8.12;51.32;101799.66;5008063;28;20113;-63
2021/10/17 00:40:35;;;;;;;14.95;3.60;;;;;;;8.06;51.81;101799.75;5001507;28;20033;-65
2021/10/17 00:43:02;;;;;;;11.43;3.20;;;;;;;8.38;51.29;101798.38;5008058;28;20033;-65
2021/10/17 00:45:29;;;;;;;7.40;3.42;;;;;;;8.07;52.05;101798.88;5002712;28;20021;-65
2021/10/17 00:47:57;;;;;;;11.10;3.17;;;;;;;8.18;52.02;101797.84;4994723;28;20053;-65
2021/10/17 00:50:23;;;;;;;6.45;3.20;;;;;;;7.97;53.07;101799.88;5008403;28;20033;-63
2021/10/17 00:52:49;;;;;;;11.38;4.05;;;;;;;7.90;52.77;101803.47;4999560;28;20400;-64
2021/10/17 00:55:16;;;;;;;9.90;3.95;;;;;;;8.33;51.73;101798.44;5023348;28;20029;-64
2021/10/17 00:57:43;;;;;;;18.25;4.38;;;;;;;8.22;52.57;101799.50;5009958;28;20069;-64
2021/10/17 01:00:11;;;;;;;8.48;4.05;;;;;;;8.70;51.24;101797.00;5007464;28;20048;-63
2021/10/17 01:02:37;;;;;;;10.25;3.78;;;;;;;8.60;51.39;101798.03;5006700;28;20041;-65
2021/10/17 01:05:02;;;;;;;10.60;3.35;;;;;;;8.77;50.99;101804.72;5009708;28;20068;-64
2021/10/17 01:07:28;;;;;;;11.55;3.25;;;;;;;8.49;51.41;101804.28;5007249;28;20064;-63
2021/10/17 01:09:54;;;;;;;11.07;4.18;;;;;;;8.82;50.51;101807.22;5012950;28;20041;-64
2021/10/17 01:12:21;;;;;;;9.07;3.80;;;;;;;8.87;50.44;101799.31;5012836;28;20383;-64
2021/10/17 01:14:47;;;;;;;10.43;4.68;;;;;;;8.63;50.97;101808.41;5013597;28;20091;-66
2021/10/17 01:17:13;;;;;;;7.75;4.25;;;;;;;8.75;50.88;101800.41;5009370;28;20046;-65
2021/10/17 01:19:45;;;;;;;21.75;5.47;;;;;;;8.66;50.77;101795.34;4999982;28;20025;-64
2021/10/17 01:22:17;;;;;;;17.35;5.38;;;;;;;8.68;50.77;101798.78;4999228;28;20030;-66
2021/10/17 01:24:43;;;;;;;13.70;4.72;;;;;;;8.81;50.68;101805.53;5018941;28;20029;-64
2021/10/17 01:27:09;;;;;;;9.98;3.97;;;;;;;8.81;50.61;101795.09;5018096;28;20042;-65
2021/10/17 01:29:34;;;;;;;9.85;4.38;;;;;;;8.69;51.16;101801.34;5016813;28;20079;-64
2021/10/17 01:32:01;;;;;;;8.25;3.80;;;;;;;8.53;51.63;101795.53;5023914;28;20041;-65
2021/10/17 01:34:27;;;;;;;10.82;4.75;;;;;;;8.81;50.73;101795.09;5015182;28;20029;-65
2021/10/17 01:36:53;;;;;;;12.70;4.35;;;;;;;8.80;50.67;101803.78;5008671;28;20410;-65
2021/10/17 01:39:21;;;;;;;8.48;3.40;;;;;;;8.91;50.82;101801.84;5016814;28;20030;-65
2021/10/17 01:41:47;;;;;;;11.73;4.90;;;;;;;8.71;51.01;101791.78;5009166;28;20089;-65
2021/10/17 01:44:22;;;;;;;10.10;4.32;;;;;;;8.79;50.85;101781.22;5011445;28;20021;-65
2021/10/17 01:46:48;;;;;;;12.27;4.35;;;;;;;8.69;51.36;101790.91;5009634;28;20061;-64
2021/10/17 01:49:14;;;;;;;8.93;4.45;;;;;;;8.73;51.28;101794.38;5012110;28;22804;-65
2021/10/17 01:51:43;;;;;;;16.35;4.65;;;;;;;8.43;51.73;101791.38;5009864;28;20486;-65
2021/10/17 01:54:09;;;;;;;12.52;5.45;;;;;;;8.76;50.95;101789.09;5009100;28;20045;-64
2021/10/17 01:56:36;;;;;;;13.35;4.97;;;;;;;8.61;51.26;101790.19;4998651;28;20025;-65
2021/10/17 01:59:04;;;;;;;10.98;4.47;;;;;;;8.94;50.45;101786.16;4997871;28;20129;-64
2021/10/17 02:01:38;;;;;;;6.38;4.63;;;;;;;8.87;50.35;101794.97;4994733;28;20040;-63
2021/10/17 02:04:05;;;;;;;8.38;3.90;;;;;;;8.78;50.96;101789.91;5025190;28;20069;-63
2021/10/17 02:06:31;;;;;;;12.57;4.53;;;;;;;8.87;50.37;101788.91;5016341;28;20040;-63
2021/10/17 02:09:02;;;;;;;17.17;5.07;;;;;;;8.64;51.31;101786.69;5000353;28;20048;-64
2021/10/17 02:11:28;;;;;;;10.52;4.70;;;;;;;8.85;50.30;101788.06;5015580;28;20277;-63
2021/10/17 02:13:54;;;;;;;13.23;5.43;;;;;;;8.89;50.40;101781.91;5014209;28;20033;-65
2021/10/17 02:16:19;;;;;;;11.55;4.85;;;;;;;8.93;50.37;101786.19;5027571;28;20065;-64
2021/10/17 02:18:49;;;;;;;9.30;5.00;;;;;;;8.93;50.39;101783.59;5012156;28;20042;-63
2021/10/17 02:21:16;;;;;;;17.58;6.30;;;;;;;8.90;50.50;101783.66;5012647;28;20420;-63
2021/10/17 02:23:43;;;;;;;11.63;4.68;;;;;;;9.13;49.75;101791.03;5021634;28;20041;-65
2021/10/17 02:26:09;;;;;;;8.90;4.65;;;;;;;9.18;49.85;101787.44;5011251;28;20052;-66
2021/10/17 02:29:00;;;;;;;13.18;5.78;;;;;;;9.06;50.04;101789.44;5007719;28;20054;-64
2021/10/17 02:31:31;;;;;;;10.88;4.68;;;;;;;9.04;50.17;101791.22;5016039;28;20037;-65
2021/10/17 02:33:58;;;;;;;12.63;5.25;;;;;;;8.42;51.66;101780.97;5013904;28;20553;-65
2021/10/17 02:36:24;;;;;;;10.77;4.45;;;;;;;8.98;50.19;101777.41;5010589;28;22275;-64
2021/10/17 02:38:49;;;;;;;13.73;6.18;;;;;;;8.70;50.56;101781.38;5014457;28;20042;-64
2021/10/17 02:41:15;;;;;;;15.65;5.75;;;;;;;8.73;50.63;101779.56;5014091;28;20068;-64
2021/10/17 02:43:40;;;;;;;7.97;4.68;;;;;;;8.84;50.57;101771.56;5002911;28;20512;-64
2021/10/17 02:46:06;;;;;;;9.93;5.65;;;;;;;8.73;51.11;101774.38;5011649;28;20040;-64
2021/10/17 02:48:36;;;;;;;13.32;5.50;;;;;;;8.56;51.46;101774.66;4999054;28;20680;-66
2021/10/17 02:51:03;;;;;;;14.30;7.22;;;;;;;8.49;51.67;101772.16;5016470;28;20044;-64
2021/10/17 02:53:30;;;;;;;12.23;5.88;;;;;;;8.43;51.96;101777.50;5010968;28;20034;-65
2021/10/17 02:55:55;;;;;;;11.43;6.75;;;;;;;8.31;52.25;101770.72;5016973;28;20044;-65
2021/10/17 02:58:20;;;;;;;19.23;5.97;;;;;;;8.47;51.58;101768.72;5010885;28;20038;-64
2021/10/17 03:00:53;;;;;;;17.17;6.20;;;;;;;8.70;51.39;101776.16;5014063;28;20469;-64
2021/10/17 03:03:19;;;;;;;14.82;6.50;;;;;;;8.45;51.52;101781.78;5017676;28;20410;-65
2021/10/17 03:05:45;;;;;;;16.38;5.47;;;;;;;8.80;50.63;101785.53;5015980;28;20033;-64
2021/10/17 03:08:10;;;;;;;16.23;6.65;;;;;;;8.52;51.55;101775.59;5011560;28;20037;-66
2021/10/17 03:10:36;;;;;;;13.90;6.75;;;;;;;7.66;53.99;101784.69;5012752;28;20048;-64
2021/10/17 03:13:03;;;;;;;19.17;6.93;;;;;;;8.06;53.16;101784.13;5001883;28;20137;-65
2021/10/17 03:15:28;;;;;;;16.77;6.93;;;;;;;7.73;53.99;101777.66;4999154;28;20113;-64
2021/10/17 03:17:54;;;;;;;13.43;6.45;;;;;;;8.38;52.04;101787.97;5008699;28;20453;-63
2021/10/17 03:20:22;;;;;;;14.60;6.60;;;;;;;8.69;51.34;101779.63;5014443;28;20033;-64
2021/10/17 03:22:47;;;;;;;21.00;6.75;;;;;;;8.67;51.21;101790.09;5011322;28;20127;-64
2021/10/17 03:25:13;;;;;;;17.63;6.40;;;;;;;8.30;52.24;101779.44;5026472;28;20025;-63
2021/10/17 03:27:39;;;;;;;13.95;6.88;;;;;;;8.54;51.31;101786.84;5013582;28;20239;-64
2021/10/17 03:30:06;;;;;;;16.80;6.50;;;;;;;8.38;52.19;101787.97;5013968;28;20048;-64
2021/10/17 03:32:32;;;;;;;15.10;7.53;;;;;;;8.08;52.67;101786.72;5018850;28;20033;-62
2021/10/17 03:34:58;;;;;;;13.43;6.82;;;;;;;8.35;52.36;101785.41;5012370;28;20093;-64
2021/10/17 03:37:23;;;;;;;11.55;6.07;;;;;;;8.38;52.33;101780.16;5025995;28;20033;-65
2021/10/17 03:39:53;;;;;;;18.17;7.20;;;;;;;8.30;52.13;101779.44;5014695;28;20494;-65
2021/10/17 03:42:19;;;;;;;11.93;7.25;;;;;;;7.79;53.91;101774.97;5002155;28;20072;-64
2021/10/17 03:44:44;;;;;;;19.27;6.53;;;;;;;8.40;52.06;101773.16;4996925;28;20107;-63
2021/10/17 03:47:11;;;;;;;14.20;7.47;;;;;;;7.87;53.83;101767.94;5013580;28;20038;-66
2021/10/17 03:49:37;;;;;;;12.45;6.72;;;;;;;7.86;53.76;101767.94;4985571;28;20085;-66
2021/10/17 03:52:03;;;;;;;13.48;6.25;;;;;;;8.29;52.29;101782.91;5012494;28;20045;-64
2021/10/17 03:54:28;;;;;;;14.60;6.97;;;;;;;8.32;52.50;101772.47;5026067;28;20402;-64
2021/10/17 03:56:54;;;;;;;15.88;7.43;;;;;;;8.29;52.26;101772.47;5023695;28;20453;-66
2021/10/17 03:59:20;;;;;;;13.20;6.95;;;;;;;8.39;52.08;101770.59;5022684;28;20076;-63
2021/10/17 04:01:49;;;;;;;10.80;6.10;;;;;;;8.11;53.19;101771.91;5016376;28;20033;-63
2021/10/17 04:04:17;;;;;;;19.52;7.47;;;;;;;8.40;52.33;101767.97;5015367;28;20402;-66
2021/10/17 04:06:42;;;;;;;13.88;6.93;;;;;;;8.49;51.91;101772.16;5013740;28;20041;-64
2021/10/17 04:09:18;;;;;;;14.60;6.65;;;;;;;8.14;52.79;101766.66;5015329;28;20068;-65
2021/10/17 04:11:46;;;;;;;15.32;6.97;;;;;;;8.27;52.27;101766.44;5009723;28;20061;-64
2021/10/17 04:14:15;;;;;;;16.00;6.93;;;;;;;7.32;54.96;101764.25;5016956;28;20034;-65
2021/10/17 04:16:40;;;;;;;11.32;6.55;;;;;;;8.27;52.37;101756.91;5023786;28;20500;-64
2021/10/17 04:19:07;;;;;;;13.85;6.70;;;;;;;8.06;53.00;101757.22;5008751;28;20042;-64
2021/10/17 04:21:32;;;;;;;14.15;6.65;;;;;;;8.10;52.76;101758.91;5010730;28;20039;-64
2021/10/17 04:23:58;;;;;;;15.32;7.20;;;;;;;8.18;52.85;101761.38;5017966;28;20080;-64
2021/10/17 04:26:24;;;;;;;14.75;7.38;;;;;;;8.20;52.72;101749.19;5009718;28;20078;-64
2021/10/17 04:28:51;;;;;;;14.93;6.90;;;;;;;8.38;52.06;101759.31;5002012;28;20537;-65
2021/10/17 04:31:16;;;;;;;11.15;6.40;;;;;;;8.18;52.54;101745.75;5012407;28;20034;-64
2021/10/17 04:33:43;;;;;;;16.63;7.03;;;;;;;8.35;52.22;101748.94;5008730;28;20169;-64
2021/10/17 04:36:09;;;;;;;18.98;6.05;;;;;;;8.53;51.86;101747.78;5013367;28;20030;-65
2021/10/17 04:38:35;;;;;;;12.95;6.13;;;;;;;8.51;51.59;101753.00;5008007;28;20481;-63
2021/10/17 04:41:01;;;;;;;11.95;6.93;;;;;;;8.27;52.36;101749.09;5019699;28;20046;-64
2021/10/17 04:43:27;;;;;;;15.23;6.35;;;;;;;8.39;51.77;101745.41;5024447;28;20041;-65
2021/10/17 04:45:52;;;;;;;12.10;5.53;;;;;;;8.44;51.58;101740.13;5008267;28;20045;-63
2021/10/17 04:48:20;;;;;;;18.45;6.25;;;;;;;7.48;54.25;101754.53;5006546;28;20061;-64
2021/10/17 04:50:47;;;;;;;12.73;6.03;;;;;;;8.11;52.59;101748.47;5014407;28;20548;-64
2021/10/17 04:53:12;;;;;;;11.77;6.00;;;;;;;7.60;54.15;101748.34;5010552;28;20044;-64
2021/10/17 04:55:37;;;;;;;13.95;6.07;;;;;;;7.69;53.55;101736.94;5010584;28;20430;-66
2021/10/17 04:58:06;;;;;;;15.90;7.78;;;;;;;8.01;53.02;101743.44;5016468;28;20090;-65
2021/10/17 05:00:32;;;;;;;10.55;7.13;;;;;;;7.42;55.02;101746.81;5025987;28;20201;-65
2021/10/17 05:03:00;;;;;;;15.20;6.40;;;;;;;7.82;53.70;101748.88;5009645;28;20293;-64
2021/10/17 05:05:26;;;;;;;12.65;6.32;;;;;;;8.00;53.38;101741.69;5024936;28;20057;-65
2021/10/17 05:07:53;;;;;;;9.45;6.18;;;;;;;7.69;53.80;101745.63;5015295;28;20037;-65
2021/10/17 05:10:19;;;;;;;20.48;7.28;;;;;;;7.53;54.78;101742.34;5013673;28;20026;-64
2021/10/17 05:12:44;;;;;;;11.45;6.10;;;;;;;7.48;54.92;101732.88;5010401;28;20091;-63
2021/10/17 05:15:10;;;;;;;13.93;5.18;;;;;;;7.93;53.60;101736.56;5010148;28;20041;-65
2021/10/17 05:17:36;;;;;;;17.58;6.10;;;;;;;7.78;54.11;101741.16;5010671;28;20068;-65
2021/10/17 05:20:02;;;;;;;21.42;5.53;;;;;;;8.04;53.75;101727.75;5027247;28;20049;-65
2021/10/17 05:22:30;;;;;;;16.42;6.82;;;;;;;7.02;56.16;101723.91;5009689;28;20502;-65
2021/10/17 05:24:56;;;;;;;15.30;6.63;;;;;;;7.25;56.09;101735.78;5012149;28;20040;-65
2021/10/17 05:27:21;;;;;;;15.07;7.10;;;;;;;7.64;54.64;101736.16;5007832;28;20135;-64
2021/10/17 05:29:46;;;;;;;16.23;7.35;;;;;;;7.44;55.68;101742.44;5013615;28;20121;-65
2021/10/17 05:32:12;;;;;;;14.77;7.25;;;;;;;7.31;55.72;101736.56;5013717;28;20064;-64
2021/10/17 05:34:38;;;;;;;15.50;7.10;;;;;;;7.09;56.64;101750.69;5011111;28;20613;-65
2021/10/17 05:37:03;;;;;;;12.50;6.93;;;;;;;7.42;55.77;101748.53;5007946;28;20077;-65
2021/10/17 05:39:29;;;;;;;18.55;7.35;;;;;;;7.65;55.14;101745.69;5008552;28;20037;-63
2021/10/17 05:41:55;;;;;;;11.85;6.28;;;;;;;7.37;55.88;101750.34;5008162;28;20060;-64
2021/10/17 05:44:21;;;;;;;18.25;7.25;;;;;;;7.60;55.00;101742.25;5012397;28;20025;-65
2021/10/17 05:46:47;;;;;;;15.23;6.50;;;;;;;7.85;54.34;101745.41;5004946;28;20044;-64
2021/10/17 05:49:14;;;;;;;12.27;7.43;;;;;;;7.70;54.95;101749.94;5026180;28;20297;-64
2021/10/17 05:51:40;;;;;;;14.57;8.07;;;;;;;7.68;54.86;101756.91;5015254;28;20052;-65
2021/10/17 05:54:06;;;;;;;13.82;7.22;;;;;;;7.78;54.50;101751.56;5023209;28;20038;-64
2021/10/17 05:56:32;;;;;;;18.75;6.97;;;;;;;7.46;55.58;101756.28;5007559;28;20043;-64
2021/10/17 05:58:57;;;;;;;11.98;6.63;;;;;;;8.01;54.14;101772.91;5007707;28;20065;-64
2021/10/17 06:01:24;;;;;;;15.25;6.70;;;;;;;7.95;53.96;101771.25;5010928;28;20045;-64
2021/10/17 06:04:04;;;;;;;11.95;6.65;;;;;;;7.81;54.62;101764.56;5024009;28;20048;-64
2021/10/17 06:06:48;;;;;;;15.52;7.75;;;;;;;7.25;56.02;101765.22;5009570;28;20647;-64
2021/10/17 06:09:16;;;;;;;16.48;7.60;;;;;;;7.60;54.98;101771.78;5009558;28;20034;-64
2021/10/17 06:11:43;;;;;;;12.43;6.88;;;;;;;7.44;55.86;101772.78;5006115;28;20057;-64
2021/10/17 06:14:10;;;;;;;18.52;8.27;;;;;;;7.72;55.27;101783.75;5024505;23;20650;-91
2021/10/17 06:16:35;;;;;;;21.23;8.27;;;;;;;7.71;54.90;101788.09;5027411;28;20033;-90
2021/10/17 06:19:01;;;;;;;16.55;7.57;;;;;;;7.00;56.71;101782.84;5031469;28;20043;-91
2021/10/17 06:21:34;;;;;;;15.93;7.07;;;;;;;7.93;54.51;101772.16;5030964;28;20041;-90
2021/10/17 06:24:00;;;;;;;17.33;7.72;;;;;;;7.60;55.07;101778.69;5033043;28;20330;-89
2021/10/17 06:26:25;;;;;;;19.02;7.50;;;;;;;7.38;55.84;101780.66;5046351;28;20058;-89
2021/10/17 06:28:53;;;;;;;18.58;8.07;;;;;;;8.23;53.75;101775.22;5035234;28;20115;-89
2021/10/17 06:31:18;;;;;;;21.00;8.00;;;;;;;8.03;53.60;101778.97;5013398;28;20444;-89
2021/10/17 06:33:45;;;;;;;17.77;8.10;;;;;;;8.10;53.74;101779.75;5012295;28;20131;-90
2021/10/17 06:36:11;;;;;;;16.25;8.48;;;;;;;8.40;53.01;101782.72;5040655;28;20025;-89
2021/10/17 06:38:37;;;;;;;16.45;7.97;;;;;;;7.79;54.44;101790.59;5041009;28;20732;-91
2021/10/17 06:41:03;;;;;;;21.10;8.18;;;;;;;8.15;53.45;101783.97;5033935;28;20039;-89
2021/10/17 06:43:31;;;;;;;20.52;8.43;;;;;;;8.19;52.86;101790.00;5032798;28;20401;-89
2021/10/17 06:46:12;;;;;;;19.40;8.25;;;;;;;7.99;53.74;101787.69;5019442;28;20051;-90
2021/10/17 06:48:39;;;;;;;14.00;8.20;;;;;;;7.76;54.33;101792.34;5037990;28;20033;-90
2021/10/17 06:51:05;;;;;;;21.63;7.95;;;;;;;8.14;53.53;101787.47;5027137;28;20037;-90
2021/10/17 06:53:30;;;;;;;17.20;8.52;;;;;;;7.98;53.50;101785.09;5036140;28;20039;-91
2021/10/17 06:55:56;;;;;;;22.73;8.60;;;;;;;8.11;53.59;101787.53;5038612;28;20044;-90
2021/10/17 06:58:25;;;;;;;17.88;8.27;;;;;;;8.49;52.75;101791.25;5027380;28;20041;-89
2021/10/17 07:00:51;;;;;;;15.80;6.68;;;;;;;8.36;52.24;101798.44;5055118;28;20108;-89
2021/10/17 07:03:18;;;;;;;13.82;7.05;;;;;;;7.98;53.31;101801.63;5018686;28;20154;-88
2021/10/17 07:06:06;;;;;;;13.38;6.65;;;;;;;8.33;52.93;101803.66;5049709;28;20086;-90
2021/10/17 07:08:33;;;;;;;17.75;6.82;;;;;;;7.86;54.07;101817.38;5045526;28;20032;-89
2021/10/17 07:11:00;;;;;;;16.55;7.43;;;;;;;8.06;53.67;101799.75;5054428;28;20041;-88
2021/10/17 07:13:58;;;;;;;13.43;7.00;;;;;;;8.18;52.62;101803.03;5054262;28;20080;-91
2021/10/17 07:16:29;;;;;;;11.32;6.50;;;;;;;8.73;51.60;101799.56;5031508;28;20022;-91
2021/10/17 07:18:55;;;;;;;13.70;7.35;;;;;;;8.28;52.58;101807.25;5017850;28;20513;-89
2021/10/17 07:21:21;;;;;;;17.30;7.40;;;;;;;8.59;51.64;101806.75;5048650;28;20066;-89
2021/10/17 07:23:49;;;;;;;10.18;6.60;;;;;;;8.64;51.79;101808.38;5038592;28;20051;-91
2021/10/17 07:26:14;;;;;;;19.80;8.85;;;;;;;8.07;53.21;101817.09;5054991;28;20025;-91
2021/10/17 07:28:40;;;;;;;15.10;6.72;;;;;;;8.60;52.02;101819.75;5045528;28;20042;-88
2021/10/17 07:31:08;;;;;;;9.23;6.13;;;;;;;8.67;51.66;101821.38;5060057;28;20028;-90
2021/10/17 07:33:46;;;;;;;11.55;5.85;;;;;;;8.82;51.26;101833.31;5023712;28;20049;-92
2021/10/17 07:36:13;;;;;;;14.45;7.47;;;;;;;7.91;53.54;101832.09;5048643;28;20055;-90
2021/10/17 07:38:44;;;;;;;17.55;6.40;;;;;;;8.48;51.98;101827.78;5040948;28;20044;-90
2021/10/17 07:41:09;;;;;;;16.75;6.80;;;;;;;8.64;51.87;101826.63;5055744;28;20029;-89
2021/10/17 07:43:35;;;;;;;16.95;6.32;;;;;;;8.40;52.40;101832.22;5045338;28;20124;-90
2021/10/17 07:46:02;;;;;;;15.95;6.78;;;;;;;8.56;51.84;101826.75;5066924;28;20119;-89
2021/10/17 07:48:31;;;;;;;12.32;6.70;;;;;;;8.76;51.05;101818.66;5037886;28;20037;-90
2021/10/17 07:50:57;;;;;;;15.77;6.60;;;;;;;8.88;51.34;101828.00;5041436;28;20017;-91
2021/10/17 07:53:27;;;;;;;23.10;7.50;;;;;;;8.70;51.70;101825.69;5055487;28;20060;-90
2021/10/17 07:55:53;;;;;;;17.65;6.47;;;;;;;8.42;52.46;101831.31;5048696;28;20067;-90
2021/10/17 07:58:22;;;;;;;13.63;7.10;;;;;;;8.69;51.33;101843.03;5044944;28;20128;-90
2021/10/17 08:00:53;;;;;;;16.67;7.80;;;;;;;8.53;52.01;101834.63;5069256;28;20282;-89
2021/10/17 08:03:34;;;;;;;15.13;6.25;;;;;;;8.76;51.56;101834.28;5060693;28;20443;-88
2021/10/17 08:06:20;;;;;;;9.38;5.85;;;;;;;8.23;53.00;101837.72;5032163;28;20092;-90
2021/10/17 08:08:47;;;;;;;13.82;6.15;;;;;;;8.66;51.80;101834.44;5050205;28;20065;-89
2021/10/17 08:11:16;;;;;;;10.60;5.45;;;;;;;8.82;51.82;101835.91;5062418;28;20033;-89
2021/10/17 08:13:43;;;;;;;15.20;5.45;;;;;;;9.13;50.65;101827.53;5068649;28;20104;-90
2021/10/17 08:16:11;;;;;;;9.80;5.82;;;;;;;8.91;50.94;101833.13;5054767;28;20139;-89
2021/10/17 08:18:44;;;;;;;14.65;6.50;;;;;;;8.65;51.75;101830.09;5054288;28;20048;-92
2021/10/17 08:21:10;;;;;;;17.75;6.20;;;;;;;8.08;53.88;101834.44;5055411;28;20040;-89
2021/10/17 08:23:43;;;;;;;19.15;7.25;;;;;;;8.38;52.65;101831.38;5039855;28;20136;-90
2021/10/17 08:26:15;;;;;;;15.20;5.63;;;;;;;8.47;53.02;101832.13;5025752;28;20041;-90
2021/10/17 08:28:43;;;;;;;10.35;5.88;;;;;;;9.03;50.81;101833.81;5037229;28;20033;-88
2021/10/17 08:31:17;;;;;;;14.20;5.53;;;;;;;8.32;52.99;101845.38;5041043;28;20532;-90
2021/10/17 08:33:44;;;;;;;16.33;5.68;;;;;;;8.79;51.97;101843.78;5051477;28;20041;-90
2021/10/17 08:36:09;;;;;;;14.65;5.13;;;;;;;8.91;51.02;101843.56;5028777;28;20496;-90
2021/10/17 08:38:35;;;;;;;17.45;5.93;;;;;;;8.73;51.52;101846.50;5029262;28;20039;-89
2021/10/17 08:41:06;;;;;;;11.93;6.65;;;;;;;8.84;51.17;101836.75;5038998;28;20109;-91
2021/10/17 08:43:46;;;;;;;14.38;5.40;;;;;;;8.95;51.15;101839.16;5039336;28;20037;-90
2021/10/17 08:46:21;;;;;;;15.77;5.90;;;;;;;9.04;50.91;101844.22;5041475;28;20037;-89
2021/10/17 08:48:57;;;;;;;14.68;6.05;;;;;;;9.62;49.86;101837.00;5052591;28;20040;-90
2021/10/17 08:51:26;;;;;;;19.63;6.45;;;;;;;9.06;50.32;101836.38;5060463;28;20033;-89
2021/10/17 08:54:06;;;;;;;12.48;6.07;;;;;;;9.71;49.61;101826.38;5038901;28;20030;-89
2021/10/17 08:56:40;;;;;;;18.30;6.43;;;;;;;9.31;50.39;101832.41;5023142;28;20112;-89
2021/10/17 08:59:09;;;;;;;14.18;5.25;;;;;;;9.36;50.16;101833.16;5053163;28;20045;-90
2021/10/17 09:01:42;;;;;;;12.70;5.75;;;;;;;9.25;50.23;101831.66;5043012;28;20026;-89
2021/10/17 09:04:14;;;;;;;11.85;4.80;;;;;;;9.16;49.74;101840.50;5033223;28;20040;-89
2021/10/17 09:07:15;;;;;;;9.27;4.32;;;;;;;8.94;50.97;101838.31;5052448;28;20111;-89
2021/10/17 09:10:10;;;;;;;14.30;6.70;;;;;;;8.82;51.72;101840.28;5033412;28;20101;-91
2021/10/17 09:12:38;;;;;;;13.20;5.85;;;;;;;9.46;50.02;101846.06;5038458;28;20044;-91
2021/10/17 09:15:31;;;;;;;10.30;5.07;;;;;;;9.44;49.69;101845.22;5034969;28;20053;-89
2021/10/17 09:18:21;;;;;;;16.85;5.45;;;;;;;9.65;48.97;101852.59;5045898;28;20037;-89
2021/10/17 09:20:55;;;;;;;14.38;5.07;;;;;;;9.00;49.96;101852.13;5052074;28;20040;-90
2021/10/17 09:23:21;;;;;;;17.02;6.20;;;;;;;9.69;48.89;101848.19;5055199;28;20035;-90
2021/10/17 09:25:47;;;;;;;10.32;5.05;;;;;;;9.82;48.13;101854.06;5052312;28;20049;-90
2021/10/17 09:28:18;;;;;;;12.15;5.30;;;;;;;9.48;48.68;101849.50;5062817;28;20029;-92
2021/10/17 09:30:58;;;;;;;10.03;4.73;;;;;;;9.16;49.17;101853.56;5031957;28;20143;-92
2021/10/17 09:33:24;;;;;;;16.08;4.97;;;;;;;9.48;48.95;101855.56;5037049;28;20272;-92
2021/10/17 09:35:50;;;;;;;9.30;4.43;;;;;;;9.46;48.68;101848.66;5035641;28;20044;-91
2021/10/17 09:38:38;;;;;;;13.60;5.07;;;;;;;9.35;48.72;101847.09;5012102;28;20084;-90
2021/10/17 09:41:16;;;;;;;10.60;5.22;;;;;;;9.57;48.79;101851.91;5026424;28;20036;-92
2021/10/17 09:43:57;;;;;;;25.38;5.22;;;;;;;9.85;47.69;101843.53;5036202;28;20041;-88
2021/10/17 09:46:52;;;;;;;15.48;5.00;;;;;;;9.50;48.80;101858.13;5027439;28;20042;-89
2021/10/17 09:49:22;;;;;;;14.25;5.07;;;;;;;9.41;48.76;101859.19;5035153;28;20268;-90
2021/10/17 09:52:08;;;;;;;16.60;5.57;;;;;;;9.33;48.79;101861.06;5046483;28;20136;-89
2021/10/17 09:54:33;;;;;;;10.73;5.60;;;;;;;9.17;49.21;101870.94;5049855;28;20033;-89
2021/10/17 09:57:05;;;;;;;10.20;5.20;;;;;;;9.78;47.60;101868.88;5047971;28;20036;-89
2021/10/17 09:59:32;;;;;;;14.10;6.20;;;;;;;10.07;47.23;101867.44;5048476;28;20036;-89
2021/10/17 10:01:58;;;;;;;14.95;6.18;;;;;;;9.31;48.67;101879.38;5034507;28;20065;-89
2021/10/17 10:04:25;;;;;;;10.07;5.15;;;;;;;9.57;48.08;101870.19;5035094;28;20035;-91
2021/10/17 10:06:52;;;;;;;11.95;5.32;;;;;;;9.68;47.33;101868.22;5048906;28;20044;-91
2021/10/17 10:09:20;;;;;;;13.73;4.97;;;;;;;9.45;48.25;101865.19;5042165;28;20040;-91
2021/10/17 10:11:47;;;;;;;10.05;5.60;;;;;;;10.13;46.27;101865.53;5038161;28;20120;-90
2021/10/17 10:14:14;;;;;;;10.07;4.97;;;;;;;9.72;47.18;101869.00;5024430;28;20210;-89
2021/10/17 10:16:40;;;;;;;13.73;5.35;;;;;;;10.09;45.82;101869.13;5039860;28;20024;-91
2021/10/17 10:19:08;;;;;;;15.55;5.82;;;;;;;9.84;46.89;101873.16;5036036;28;20045;-91
2021/10/17 10:21:35;;;;;;;19.30;5.72;;;;;;;9.65;47.37;101868.25;5046905;28;20040;-92
2021/10/17 10:24:19;;;;;;;12.02;5.57;;;;;;;9.61;47.07;101871.84;5021249;28;20033;-90
2021/10/17 10:26:52;;;;;;;14.52;6.18;;;;;;;9.34;48.03;101870.59;5051760;28;20049;-90
2021/10/17 10:29:26;;;;;;;11.80;5.70;;;;;;;9.43;47.97;101877.41;5053879;28;20041;-89
2021/10/17 10:31:55;;;;;;;12.55;5.32;;;;;;;9.43;47.44;101887.84;5037462;28;20068;-90
2021/10/17 10:34:23;;;;;;;11.23;5.40;;;;;;;9.73;46.87;101881.19;5031532;28;20053;-90
2021/10/17 10:36:55;;;;;;;11.68;6.35;;;;;;;9.23;48.16;101886.50;5029014;28;20037;-89
2021/10/17 10:39:32;;;;;;;11.07;5.00;;;;;;;9.22;47.68;101889.13;5058861;28;20025;-90
2021/10/17 10:42:06;;;;;;;13.05;4.07;;;;;;;9.80;46.72;101883.66;5044693;28;20037;-92
2021/10/17 10:44:33;;;;;;;8.38;4.00;;;;;;;9.65;47.05;101881.31;5061323;28;20075;-90
2021/10/17 10:47:28;;;;;;;12.35;5.18;;;;;;;9.97;46.16;101882.44;5043998;28;20097;-90
2021/10/17 10:49:56;;;;;;;20.27;6.15;;;;;;;9.83;46.80;101877.50;5046846;28;20029;-90
2021/10/17 10:52:25;;;;;;;11.32;4.47;;;;;;;9.86;46.32;101876.59;5031925;28;20052;-90
2021/10/17 10:54:51;;;;;;;12.98;5.22;;;;;;;9.65;46.49;101888.28;5039563;28;20041;-90
2021/10/17 10:57:21;;;;;;;12.73;5.18;;;;;;;9.82;46.74;101893.22;5044789;28;20041;-90
2021/10/17 11:00:00;;;;;;;13.98;5.28;;;;;;;10.10;46.01;101885.63;5038759;28;20519;-89
2021/10/17 11:02:26;;;;;;;14.43;4.75;;;;;;;10.18;45.08;101881.97;5038341;28;20067;-90
2021/10/17 11:04:57;;;;;;;13.68;5.65;;;;;;;9.82;46.10;101890.59;5044747;28;20442;-87
2021/10/17 11:07:29;;;;;;;10.18;4.40;;;;;;;10.25;45.83;101885.31;5042442;28;20049;-90
2021/10/17 11:09:57;;;;;;;11.27;4.63;;;;;;;9.71;45.83;101889.03;5057275;28;20040;-92
2021/10/17 11:12:38;;;;;;;16.67;5.18;;;;;;;9.83;45.82;101892.31;5043004;28;20029;-91
2021/10/17 11:15:15;;;;;;;13.30;4.93;;;;;;;10.10;45.45;101886.53;5037427;28;20363;-90
2021/10/17 11:18:03;;;;;;;11.88;5.32;;;;;;;9.85;45.51;101895.75;5036913;28;20036;-91
2021/10/17 11:20:32;;;;;;;15.65;5.13;;;;;;;9.96;45.58;101888.56;5036840;28;20033;-89
2021/10/17 11:22:59;;;;;;;13.02;4.43;;;;;;;9.93;45.64;101883.41;5038514;28;20056;-91
2021/10/17 11:25:26;;;;;;;9.45;5.28;;;;;;;9.53;46.95;101885.03;5043300;28;20604;-90
2021/10/17 11:27:53;;;;;;;12.02;4.85;;;;;;;9.67;45.83;101886.50;5051418;28;20041;-89
2021/10/17 11:30:27;;;;;;;12.80;5.13;;;;;;;9.93;45.52;101880.78;5022768;28;20553;-89
2021/10/17 11:32:54;;;;;;;14.02;4.70;;;;;;;10.16;44.78;101885.50;5053833;28;20219;-91
2021/10/17 11:35:37;;;;;;;7.53;4.32;;;;;;;10.19;45.12;101883.69;5051597;28;20048;-89